sensor_id;sensor_type;location;lat;lon;timestamp;P1;durP1;ratioP1;P2;durP2;ratioP2
52962;SDS011;38827;53.024;6.596;2022-08-11T00:00:07;8.40;;;4.93;;
52962;SDS011;38827;53.024;6.596;2022-08-11T00:02:47;8.23;;;6.05;;
52962;SDS011;38827;53.024;6.596;2022-08-11T00:05:16;7.75;;;6.28;;
52962;SDS011;38827;53.024;6.596;2022-08-11T00:07:48;9.15;;;6.30;;
52962;SDS011;38827;53.024;6.596;2022-08-11T00:10:21;8.25;;;6.63;;
52962;SDS011;38827;53.024;6.596;2022-08-11T00:15:23;9.68;;;6.50;;
52962;SDS011;38827;53.024;6.596;2022-08-11T00:17:57;7.90;;;6.72;;
52962;SDS011;38827;53.024;6.596;2022-08-11T00:20:29;8.65;;;7.20;;
52962;SDS011;38827;53.024;6.596;2022-08-11T00:23:07;8.18;;;7.35;;
52962;SDS011;38827;53.024;6.596;2022-08-11T00:25:44;8.77;;;7.05;;
52962;SDS011;38827;53.024;6.596;2022-08-11T00:28:31;8.18;;;5.57;;
52962;SDS011;38827;53.024;6.596;2022-08-11T00:31:00;8.18;;;7.30;;
52962;SDS011;38827;53.024;6.596;2022-08-11T00:33:46;10.13;;;7.75;;
52962;SDS011;38827;53.024;6.596;2022-08-11T00:36:15;9.43;;;7.88;;
52962;SDS011;38827;53.024;6.596;2022-08-11T00:38:43;11.70;;;7.55;;
52962;SDS011;38827;53.024;6.596;2022-08-11T00:41:22;12.95;;;8.20;;
52962;SDS011;38827;53.024;6.596;2022-08-11T00:52:12;11.43;;;8.60;;
52962;SDS011;38827;53.024;6.596;2022-08-11T00:55:06;12.98;;;8.48;;
52962;SDS011;38827;53.024;6.596;2022-08-11T01:00:24;11.23;;;7.97;;
52962;SDS011;38827;53.024;6.596;2022-08-11T01:09:05;11.88;;;9.23;;
52962;SDS011;38827;53.024;6.596;2022-08-11T01:11:49;11.35;;;8.60;;
52962;SDS011;38827;53.024;6.596;2022-08-11T01:20:02;11.35;;;9.43;;
52962;SDS011;38827;53.024;6.596;2022-08-11T01:28:36;8.48;;;7.05;;
52962;SDS011;38827;53.024;6.596;2022-08-11T01:34:14;15.33;;;9.90;;
52962;SDS011;38827;53.024;6.596;2022-08-11T01:37:15;14.60;;;10.10;;
52962;SDS011;38827;53.024;6.596;2022-08-11T01:49:13;11.68;;;9.90;;
52962;SDS011;38827;53.024;6.596;2022-08-11T01:51:48;10.95;;;7.53;;
52962;SDS011;38827;53.024;6.596;2022-08-11T01:54:55;14.77;;;10.85;;
52962;SDS011;38827;53.024;6.596;2022-08-11T01:57:37;13.60;;;10.57;;
52962;SDS011;38827;53.024;6.596;2022-08-11T02:00:15;18.52;;;11.60;;
52962;SDS011;38827;53.024;6.596;2022-08-11T02:08:33;16.95;;;12.20;;
52962;SDS011;38827;53.024;6.596;2022-08-11T02:11:29;15.05;;;11.48;;
52962;SDS011;38827;53.024;6.596;2022-08-11T02:14:01;15.98;;;11.32;;
52962;SDS011;38827;53.024;6.596;2022-08-11T02:16:47;12.52;;;10.68;;
52962;SDS011;38827;53.024;6.596;2022-08-11T02:25:55;15.63;;;11.15;;
52962;SDS011;38827;53.024;6.596;2022-08-11T02:28:28;15.98;;;12.43;;
52962;SDS011;38827;53.024;6.596;2022-08-11T02:31:19;16.63;;;12.07;;
52962;SDS011;38827;53.024;6.596;2022-08-11T02:39:45;18.40;;;13.82;;
52962;SDS011;38827;53.024;6.596;2022-08-11T02:42:34;16.23;;;13.95;;
52962;SDS011;38827;53.024;6.596;2022-08-11T02:45:41;22.48;;;14.23;;
52962;SDS011;38827;53.024;6.596;2022-08-11T02:54:20;17.13;;;14.40;;
52962;SDS011;38827;53.024;6.596;2022-08-11T03:05:11;21.05;;;15.93;;
52962;SDS011;38827;53.024;6.596;2022-08-11T03:10:35;20.63;;;15.30;;
52962;SDS011;38827;53.024;6.596;2022-08-11T03:13:58;24.42;;;16.88;;
52962;SDS011;38827;53.024;6.596;2022-08-11T03:19:36;21.80;;;16.98;;
52962;SDS011;38827;53.024;6.596;2022-08-11T03:22:31;22.60;;;17.67;;
52962;SDS011;38827;53.024;6.596;2022-08-11T03:31:26;21.27;;;16.52;;
52962;SDS011;38827;53.024;6.596;2022-08-11T03:34:06;25.95;;;17.52;;
52962;SDS011;38827;53.024;6.596;2022-08-11T03:42:25;27.45;;;19.50;;
52962;SDS011;38827;53.024;6.596;2022-08-11T03:45:31;24.60;;;18.65;;
52962;SDS011;38827;53.024;6.596;2022-08-11T03:50:33;23.05;;;17.17;;
52962;SDS011;38827;53.024;6.596;2022-08-11T03:53:38;27.38;;;19.55;;
52962;SDS011;38827;53.024;6.596;2022-08-11T04:34:12;30.90;;;18.63;;
52962;SDS011;38827;53.024;6.596;2022-08-11T04:58:58;21.95;;;14.70;;
52962;SDS011;38827;53.024;6.596;2022-08-11T05:02:25;19.00;;;14.80;;
52962;SDS011;38827;53.024;6.596;2022-08-11T05:05:02;7.38;;;5.13;;
52962;SDS011;38827;53.024;6.596;2022-08-11T05:13:46;11.55;;;8.82;;
52962;SDS011;38827;53.024;6.596;2022-08-11T05:16:47;16.45;;;13.15;;
52962;SDS011;38827;53.024;6.596;2022-08-11T05:19:36;11.25;;;7.30;;
52962;SDS011;38827;53.024;6.596;2022-08-11T05:22:20;17.52;;;12.88;;
52962;SDS011;38827;53.024;6.596;2022-08-11T05:25:14;18.05;;;12.80;;
52962;SDS011;38827;53.024;6.596;2022-08-11T05:28:08;16.17;;;11.13;;
52962;SDS011;38827;53.024;6.596;2022-08-11T05:30:55;6.20;;;5.10;;
52962;SDS011;38827;53.024;6.596;2022-08-11T05:33:44;11.75;;;8.73;;
52962;SDS011;38827;53.024;6.596;2022-08-11T05:36:44;13.13;;;9.10;;
52962;SDS011;38827;53.024;6.596;2022-08-11T05:39:16;12.43;;;10.43;;
52962;SDS011;38827;53.024;6.596;2022-08-11T05:42:05;4.30;;;3.05;;
52962;SDS011;38827;53.024;6.596;2022-08-11T05:44:52;6.05;;;5.00;;
52962;SDS011;38827;53.024;6.596;2022-08-11T05:47:40;12.43;;;10.02;;
52962;SDS011;38827;53.024;6.596;2022-08-11T05:50:28;12.00;;;8.82;;
52962;SDS011;38827;53.024;6.596;2022-08-11T05:53:13;4.82;;;2.90;;
52962;SDS011;38827;53.024;6.596;2022-08-11T05:55:58;11.07;;;9.38;;
52962;SDS011;38827;53.024;6.596;2022-08-11T05:58:50;5.15;;;3.47;;
52962;SDS011;38827;53.024;6.596;2022-08-11T06:01:21;4.93;;;4.28;;
52962;SDS011;38827;53.024;6.596;2022-08-11T06:03:52;7.40;;;3.17;;
52962;SDS011;38827;53.024;6.596;2022-08-11T06:06:38;5.05;;;2.30;;
52962;SDS011;38827;53.024;6.596;2022-08-11T06:09:26;9.00;;;7.65;;
52962;SDS011;38827;53.024;6.596;2022-08-11T06:11:52;10.55;;;7.68;;
52962;SDS011;38827;53.024;6.596;2022-08-11T06:14:21;7.03;;;2.25;;
52962;SDS011;38827;53.024;6.596;2022-08-11T06:16:49;2.60;;;1.92;;
52962;SDS011;38827;53.024;6.596;2022-08-11T06:19:19;10.30;;;7.68;;
52962;SDS011;38827;53.024;6.596;2022-08-11T06:21:47;10.98;;;8.02;;
52962;SDS011;38827;53.024;6.596;2022-08-11T06:24:16;10.75;;;7.53;;
52962;SDS011;38827;53.024;6.596;2022-08-11T06:26:46;10.18;;;7.82;;
52962;SDS011;38827;53.024;6.596;2022-08-11T06:29:16;8.70;;;7.80;;
52962;SDS011;38827;53.024;6.596;2022-08-11T06:31:50;12.05;;;7.75;;
52962;SDS011;38827;53.024;6.596;2022-08-11T06:34:32;8.85;;;7.13;;
52962;SDS011;38827;53.024;6.596;2022-08-11T06:37:09;9.38;;;7.10;;
52962;SDS011;38827;53.024;6.596;2022-08-11T06:45:40;9.20;;;6.28;;
52962;SDS011;38827;53.024;6.596;2022-08-11T06:48:22;8.77;;;6.15;;
52962;SDS011;38827;53.024;6.596;2022-08-11T06:50:54;7.50;;;6.18;;
52962;SDS011;38827;53.024;6.596;2022-08-11T06:53:37;7.63;;;6.05;;
52962;SDS011;38827;53.024;6.596;2022-08-11T06:56:07;6.55;;;5.25;;
52962;SDS011;38827;53.024;6.596;2022-08-11T06:58:54;7.03;;;5.32;;
52962;SDS011;38827;53.024;6.596;2022-08-11T07:01:46;8.18;;;5.70;;
52962;SDS011;38827;53.024;6.596;2022-08-11T07:04:30;9.68;;;5.82;;
52962;SDS011;38827;53.024;6.596;2022-08-11T07:13:40;7.13;;;4.78;;
52962;SDS011;38827;53.024;6.596;2022-08-11T07:16:26;6.38;;;4.72;;
52962;SDS011;38827;53.024;6.596;2022-08-11T07:19:05;7.50;;;4.40;;
52962;SDS011;38827;53.024;6.596;2022-08-11T07:21:51;6.70;;;4.45;;
52962;SDS011;38827;53.024;6.596;2022-08-11T07:24:43;6.45;;;4.60;;
52962;SDS011;38827;53.024;6.596;2022-08-11T07:27:45;5.45;;;4.57;;
52962;SDS011;38827;53.024;6.596;2022-08-11T07:30:36;5.55;;;4.30;;
52962;SDS011;38827;53.024;6.596;2022-08-11T07:33:05;5.63;;;4.03;;
52962;SDS011;38827;53.024;6.596;2022-08-11T07:35:35;5.00;;;3.90;;
52962;SDS011;38827;53.024;6.596;2022-08-11T07:38:34;4.82;;;3.22;;
52962;SDS011;38827;53.024;6.596;2022-08-11T07:41:09;3.50;;;2.92;;
52962;SDS011;38827;53.024;6.596;2022-08-11T07:43:36;5.55;;;3.17;;
52962;SDS011;38827;53.024;6.596;2022-08-11T07:46:09;5.10;;;3.17;;
52962;SDS011;38827;53.024;6.596;2022-08-11T07:48:54;6.13;;;3.08;;
52962;SDS011;38827;53.024;6.596;2022-08-11T07:51:40;3.67;;;2.53;;
52962;SDS011;38827;53.024;6.596;2022-08-11T07:54:26;5.88;;;2.80;;
52962;SDS011;38827;53.024;6.596;2022-08-11T07:56:54;4.57;;;2.80;;
52962;SDS011;38827;53.024;6.596;2022-08-11T08:02:08;2.47;;;1.92;;
52962;SDS011;38827;53.024;6.596;2022-08-11T08:04:54;3.42;;;2.05;;
52962;SDS011;38827;53.024;6.596;2022-08-11T08:07:40;4.88;;;1.90;;
52962;SDS011;38827;53.024;6.596;2022-08-11T08:10:24;2.67;;;1.80;;
52962;SDS011;38827;53.024;6.596;2022-08-11T08:13:09;3.40;;;2.00;;
52962;SDS011;38827;53.024;6.596;2022-08-11T08:15:54;2.38;;;1.50;;
52962;SDS011;38827;53.024;6.596;2022-08-11T08:18:55;3.88;;;1.70;;
52962;SDS011;38827;53.024;6.596;2022-08-11T08:21:21;5.50;;;1.70;;
52962;SDS011;38827;53.024;6.596;2022-08-11T08:23:47;3.13;;;1.90;;
52962;SDS011;38827;53.024;6.596;2022-08-11T08:26:15;3.28;;;1.45;;
52962;SDS011;38827;53.024;6.596;2022-08-11T08:29:02;4.63;;;1.50;;
52962;SDS011;38827;53.024;6.596;2022-08-11T08:31:48;3.72;;;1.52;;
52962;SDS011;38827;53.024;6.596;2022-08-11T08:34:18;3.22;;;1.77;;
52962;SDS011;38827;53.024;6.596;2022-08-11T08:36:45;2.53;;;1.58;;
52962;SDS011;38827;53.024;6.596;2022-08-11T08:39:13;2.35;;;1.50;;
52962;SDS011;38827;53.024;6.596;2022-08-11T08:41:44;2.95;;;1.60;;
52962;SDS011;38827;53.024;6.596;2022-08-11T08:44:14;4.70;;;1.60;;
52962;SDS011;38827;53.024;6.596;2022-08-11T08:46:45;4.18;;;1.48;;
52962;SDS011;38827;53.024;6.596;2022-08-11T08:49:15;2.22;;;1.33;;
52962;SDS011;38827;53.024;6.596;2022-08-11T08:51:48;5.50;;;1.50;;
52962;SDS011;38827;53.024;6.596;2022-08-11T08:54:18;3.33;;;1.35;;
52962;SDS011;38827;53.024;6.596;2022-08-11T08:56:47;3.63;;;1.40;;
52962;SDS011;38827;53.024;6.596;2022-08-11T08:59:16;3.60;;;1.25;;
52962;SDS011;38827;53.024;6.596;2022-08-11T09:02:05;9.98;;;1.83;;
52962;SDS011;38827;53.024;6.596;2022-08-11T09:04:32;3.30;;;1.35;;
52962;SDS011;38827;53.024;6.596;2022-08-11T09:07:06;7.05;;;1.55;;
52962;SDS011;38827;53.024;6.596;2022-08-11T09:09:36;4.70;;;1.50;;
52962;SDS011;38827;53.024;6.596;2022-08-11T09:12:09;2.95;;;1.40;;
52962;SDS011;38827;53.024;6.596;2022-08-11T09:14:37;5.07;;;1.42;;
52962;SDS011;38827;53.024;6.596;2022-08-11T09:17:26;7.97;;;1.80;;
52962;SDS011;38827;53.024;6.596;2022-08-11T09:19:54;3.60;;;1.35;;
52962;SDS011;38827;53.024;6.596;2022-08-11T09:22:41;6.35;;;1.60;;
52962;SDS011;38827;53.024;6.596;2022-08-11T09:25:33;2.83;;;1.20;;
52962;SDS011;38827;53.024;6.596;2022-08-11T09:28:45;2.80;;;1.42;;
52962;SDS011;38827;53.024;6.596;2022-08-11T09:31:14;5.35;;;1.63;;
52962;SDS011;38827;53.024;6.596;2022-08-11T09:33:41;3.17;;;1.38;;
52962;SDS011;38827;53.024;6.596;2022-08-11T09:36:08;4.28;;;1.13;;
52962;SDS011;38827;53.024;6.596;2022-08-11T09:38:54;2.70;;;1.20;;
52962;SDS011;38827;53.024;6.596;2022-08-11T09:41:39;4.25;;;1.40;;
52962;SDS011;38827;53.024;6.596;2022-08-11T09:44:07;3.25;;;1.10;;
52962;SDS011;38827;53.024;6.596;2022-08-11T09:46:54;2.22;;;1.17;;
52962;SDS011;38827;53.024;6.596;2022-08-11T09:49:23;6.55;;;1.20;;
52962;SDS011;38827;53.024;6.596;2022-08-11T09:51:50;4.80;;;1.38;;
52962;SDS011;38827;53.024;6.596;2022-08-11T09:54:17;4.45;;;1.33;;
52962;SDS011;38827;53.024;6.596;2022-08-11T09:56:44;1.85;;;1.08;;
52962;SDS011;38827;53.024;6.596;2022-08-11T09:59:28;3.30;;;1.00;;
52962;SDS011;38827;53.024;6.596;2022-08-11T10:01:56;2.45;;;1.10;;
52962;SDS011;38827;53.024;6.596;2022-08-11T10:04:30;5.18;;;1.20;;
52962;SDS011;38827;53.024;6.596;2022-08-11T10:07:04;3.72;;;1.23;;
52962;SDS011;38827;53.024;6.596;2022-08-11T10:14:27;2.10;;;0.93;;
52962;SDS011;38827;53.024;6.596;2022-08-11T10:17:14;3.55;;;1.05;;
52962;SDS011;38827;53.024;6.596;2022-08-11T10:19:42;3.75;;;1.30;;
52962;SDS011;38827;53.024;6.596;2022-08-11T10:22:13;3.28;;;1.10;;
52962;SDS011;38827;53.024;6.596;2022-08-11T10:25:08;2.70;;;0.95;;
52962;SDS011;38827;53.024;6.596;2022-08-11T10:30:53;2.45;;;1.00;;
52962;SDS011;38827;53.024;6.596;2022-08-11T10:33:44;2.78;;;0.98;;
52962;SDS011;38827;53.024;6.596;2022-08-11T10:36:25;3.03;;;1.20;;
52962;SDS011;38827;53.024;6.596;2022-08-11T10:38:52;2.85;;;0.80;;
52962;SDS011;38827;53.024;6.596;2022-08-11T10:41:19;2.35;;;0.93;;
52962;SDS011;38827;53.024;6.596;2022-08-11T10:44:05;2.88;;;1.00;;
52962;SDS011;38827;53.024;6.596;2022-08-11T10:46:33;6.38;;;1.10;;
52962;SDS011;38827;53.024;6.596;2022-08-11T10:49:18;3.75;;;1.05;;
52962;SDS011;38827;53.024;6.596;2022-08-11T10:51:45;3.85;;;0.93;;
52962;SDS011;38827;53.024;6.596;2022-08-11T10:54:30;3.20;;;1.10;;
52962;SDS011;38827;53.024;6.596;2022-08-11T10:57:16;5.30;;;0.80;;
52962;SDS011;38827;53.024;6.596;2022-08-11T11:00:00;2.83;;;0.80;;
52962;SDS011;38827;53.024;6.596;2022-08-11T11:02:30;2.92;;;0.80;;
52962;SDS011;38827;53.024;6.596;2022-08-11T11:05:09;2.05;;;0.80;;
52962;SDS011;38827;53.024;6.596;2022-08-11T11:10:58;3.35;;;0.82;;
52962;SDS011;38827;53.024;6.596;2022-08-11T11:13:25;1.23;;;0.80;;
52962;SDS011;38827;53.024;6.596;2022-08-11T11:18:55;3.13;;;0.70;;
52962;SDS011;38827;53.024;6.596;2022-08-11T11:21:24;2.80;;;0.82;;
52962;SDS011;38827;53.024;6.596;2022-08-11T11:26:59;1.83;;;0.73;;
52962;SDS011;38827;53.024;6.596;2022-08-11T11:38:12;5.63;;;0.90;;
52962;SDS011;38827;53.024;6.596;2022-08-11T11:40:38;3.08;;;0.75;;
52962;SDS011;38827;53.024;6.596;2022-08-11T11:43:07;1.83;;;0.85;;
52962;SDS011;38827;53.024;6.596;2022-08-11T11:45:34;1.80;;;0.63;;
52962;SDS011;38827;53.024;6.596;2022-08-11T11:48:00;2.40;;;1.02;;
52962;SDS011;38827;53.024;6.596;2022-08-11T11:50:27;3.92;;;0.80;;
52962;SDS011;38827;53.024;6.596;2022-08-11T11:52:59;2.90;;;0.70;;
52962;SDS011;38827;53.024;6.596;2022-08-11T11:55:27;2.95;;;0.90;;
52962;SDS011;38827;53.024;6.596;2022-08-11T11:57:57;2.35;;;0.70;;
52962;SDS011;38827;53.024;6.596;2022-08-11T12:00:44;1.85;;;0.80;;
52962;SDS011;38827;53.024;6.596;2022-08-11T12:03:32;2.22;;;1.00;;
52962;SDS011;38827;53.024;6.596;2022-08-11T12:06:10;3.22;;;0.80;;
52962;SDS011;38827;53.024;6.596;2022-08-11T12:08:38;1.42;;;0.75;;
52962;SDS011;38827;53.024;6.596;2022-08-11T12:11:10;4.35;;;1.13;;
52962;SDS011;38827;53.024;6.596;2022-08-11T12:13:57;2.33;;;0.82;;
52962;SDS011;38827;53.024;6.596;2022-08-11T12:16:25;1.10;;;0.80;;
52962;SDS011;38827;53.024;6.596;2022-08-11T12:18:54;3.13;;;0.80;;
52962;SDS011;38827;53.024;6.596;2022-08-11T12:21:22;1.30;;;0.70;;
52962;SDS011;38827;53.024;6.596;2022-08-11T12:23:52;1.20;;;0.60;;
52962;SDS011;38827;53.024;6.596;2022-08-11T12:26:44;1.77;;;0.80;;
52962;SDS011;38827;53.024;6.596;2022-08-11T12:29:17;3.33;;;0.80;;
52962;SDS011;38827;53.024;6.596;2022-08-11T12:31:44;1.90;;;0.73;;
52962;SDS011;38827;53.024;6.596;2022-08-11T12:34:30;4.85;;;0.77;;
52962;SDS011;38827;53.024;6.596;2022-08-11T12:37:04;2.97;;;0.77;;
52962;SDS011;38827;53.024;6.596;2022-08-11T12:39:36;5.25;;;1.02;;
52962;SDS011;38827;53.024;6.596;2022-08-11T12:42:28;4.55;;;1.00;;
52962;SDS011;38827;53.024;6.596;2022-08-11T12:45:16;2.20;;;0.73;;
52962;SDS011;38827;53.024;6.596;2022-08-11T12:50:45;2.05;;;0.70;;
52962;SDS011;38827;53.024;6.596;2022-08-11T12:53:33;2.50;;;0.70;;
52962;SDS011;38827;53.024;6.596;2022-08-11T12:56:03;2.38;;;0.82;;
52962;SDS011;38827;53.024;6.596;2022-08-11T12:58:50;1.20;;;0.70;;
52962;SDS011;38827;53.024;6.596;2022-08-11T13:01:23;2.08;;;0.65;;
52962;SDS011;38827;53.024;6.596;2022-08-11T13:04:07;1.90;;;0.70;;
52962;SDS011;38827;53.024;6.596;2022-08-11T13:06:55;1.13;;;0.60;;
52962;SDS011;38827;53.024;6.596;2022-08-11T13:09:20;7.40;;;0.70;;
52962;SDS011;38827;53.024;6.596;2022-08-11T13:11:48;3.75;;;0.85;;
52962;SDS011;38827;53.024;6.596;2022-08-11T13:14:32;3.15;;;0.57;;
52962;SDS011;38827;53.024;6.596;2022-08-11T13:16:58;2.05;;;0.90;;
52962;SDS011;38827;53.024;6.596;2022-08-11T13:19:43;3.22;;;0.77;;
52962;SDS011;38827;53.024;6.596;2022-08-11T13:22:10;1.35;;;0.70;;
52962;SDS011;38827;53.024;6.596;2022-08-11T13:24:37;2.75;;;0.93;;
52962;SDS011;38827;53.024;6.596;2022-08-11T13:27:14;2.63;;;0.77;;
52962;SDS011;38827;53.024;6.596;2022-08-11T13:29:45;1.48;;;1.00;;
52962;SDS011;38827;53.024;6.596;2022-08-11T13:32:12;3.17;;;0.70;;
52962;SDS011;38827;53.024;6.596;2022-08-11T13:34:40;2.53;;;0.90;;
52962;SDS011;38827;53.024;6.596;2022-08-11T13:37:08;3.67;;;1.00;;
52962;SDS011;38827;53.024;6.596;2022-08-11T13:39:41;3.08;;;1.10;;
52962;SDS011;38827;53.024;6.596;2022-08-11T13:42:14;2.67;;;0.77;;
52962;SDS011;38827;53.024;6.596;2022-08-11T13:44:44;3.83;;;0.90;;
52962;SDS011;38827;53.024;6.596;2022-08-11T13:47:12;5.65;;;0.93;;
52962;SDS011;38827;53.024;6.596;2022-08-11T13:49:44;2.50;;;0.95;;
52962;SDS011;38827;53.024;6.596;2022-08-11T13:52:12;3.17;;;0.85;;
52962;SDS011;38827;53.024;6.596;2022-08-11T13:54:40;3.38;;;1.00;;
52962;SDS011;38827;53.024;6.596;2022-08-11T13:57:07;4.75;;;0.90;;
52962;SDS011;38827;53.024;6.596;2022-08-11T13:59:36;2.80;;;0.93;;
52962;SDS011;38827;53.024;6.596;2022-08-11T14:02:03;2.00;;;0.80;;
52962;SDS011;38827;53.024;6.596;2022-08-11T14:04:33;2.15;;;0.88;;
52962;SDS011;38827;53.024;6.596;2022-08-11T14:07:05;2.10;;;0.80;;
52962;SDS011;38827;53.024;6.596;2022-08-11T14:09:37;3.60;;;0.90;;
52962;SDS011;38827;53.024;6.596;2022-08-11T14:12:09;1.98;;;1.00;;
52962;SDS011;38827;53.024;6.596;2022-08-11T14:15:21;3.90;;;0.93;;
52962;SDS011;38827;53.024;6.596;2022-08-11T14:17:51;2.72;;;0.90;;
52962;SDS011;38827;53.024;6.596;2022-08-11T14:20:20;4.32;;;1.13;;
52962;SDS011;38827;53.024;6.596;2022-08-11T14:22:47;2.70;;;0.90;;
52962;SDS011;38827;53.024;6.596;2022-08-11T14:25:18;3.53;;;1.10;;
52962;SDS011;38827;53.024;6.596;2022-08-11T14:27:47;2.22;;;0.88;;
52962;SDS011;38827;53.024;6.596;2022-08-11T14:30:19;1.98;;;0.90;;
52962;SDS011;38827;53.024;6.596;2022-08-11T14:33:03;3.22;;;0.90;;
52962;SDS011;38827;53.024;6.596;2022-08-11T14:35:29;3.70;;;0.93;;
52962;SDS011;38827;53.024;6.596;2022-08-11T14:37:55;1.75;;;1.15;;
52962;SDS011;38827;53.024;6.596;2022-08-11T14:40:22;5.53;;;1.00;;
52962;SDS011;38827;53.024;6.596;2022-08-11T14:43:07;2.03;;;0.88;;
52962;SDS011;38827;53.024;6.596;2022-08-11T14:45:51;5.57;;;1.05;;
52962;SDS011;38827;53.024;6.596;2022-08-11T14:48:39;3.55;;;1.17;;
52962;SDS011;38827;53.024;6.596;2022-08-11T14:51:06;5.30;;;1.27;;
52962;SDS011;38827;53.024;6.596;2022-08-11T14:53:32;6.47;;;0.93;;
52962;SDS011;38827;53.024;6.596;2022-08-11T14:56:01;5.30;;;1.23;;
52962;SDS011;38827;53.024;6.596;2022-08-11T14:58:46;6.47;;;1.30;;
52962;SDS011;38827;53.024;6.596;2022-08-11T15:01:12;2.22;;;1.08;;
52962;SDS011;38827;53.024;6.596;2022-08-11T15:03:56;4.20;;;1.00;;
52962;SDS011;38827;53.024;6.596;2022-08-11T15:06:24;3.92;;;1.00;;
52962;SDS011;38827;53.024;6.596;2022-08-11T15:08:52;4.45;;;1.35;;
52962;SDS011;38827;53.024;6.596;2022-08-11T15:11:28;1.30;;;0.98;;
52962;SDS011;38827;53.024;6.596;2022-08-11T15:14:13;1.93;;;1.00;;
52962;SDS011;38827;53.024;6.596;2022-08-11T15:17:05;3.13;;;1.02;;
52962;SDS011;38827;53.024;6.596;2022-08-11T15:19:31;2.83;;;0.90;;
52962;SDS011;38827;53.024;6.596;2022-08-11T15:21:59;2.58;;;0.95;;
52962;SDS011;38827;53.024;6.596;2022-08-11T15:24:44;1.65;;;1.00;;
52962;SDS011;38827;53.024;6.596;2022-08-11T15:27:12;4.05;;;1.02;;
52962;SDS011;38827;53.024;6.596;2022-08-11T15:30:02;3.17;;;1.00;;
52962;SDS011;38827;53.024;6.596;2022-08-11T15:32:47;2.97;;;1.20;;
52962;SDS011;38827;53.024;6.596;2022-08-11T15:35:34;3.70;;;1.27;;
52962;SDS011;38827;53.024;6.596;2022-08-11T15:38:29;2.60;;;1.30;;
52962;SDS011;38827;53.024;6.596;2022-08-11T15:41:00;3.13;;;1.00;;
52962;SDS011;38827;53.024;6.596;2022-08-11T15:43:48;3.80;;;1.35;;
52962;SDS011;38827;53.024;6.596;2022-08-11T15:46:54;4.65;;;1.25;;
52962;SDS011;38827;53.024;6.596;2022-08-11T15:49:28;3.70;;;1.27;;
52962;SDS011;38827;53.024;6.596;2022-08-11T15:54:34;5.20;;;1.20;;
52962;SDS011;38827;53.024;6.596;2022-08-11T15:57:06;4.90;;;1.10;;
52962;SDS011;38827;53.024;6.596;2022-08-11T15:59:35;1.98;;;1.10;;
52962;SDS011;38827;53.024;6.596;2022-08-11T16:02:41;1.17;;;0.98;;
52962;SDS011;38827;53.024;6.596;2022-08-11T16:05:14;3.47;;;1.60;;
52962;SDS011;38827;53.024;6.596;2022-08-11T16:07:42;2.58;;;1.38;;
52962;SDS011;38827;53.024;6.596;2022-08-11T16:10:16;5.32;;;1.10;;
52962;SDS011;38827;53.024;6.596;2022-08-11T16:12:51;3.50;;;1.30;;
52962;SDS011;38827;53.024;6.596;2022-08-11T16:15:31;2.92;;;1.75;;
52962;SDS011;38827;53.024;6.596;2022-08-11T16:18:43;5.03;;;1.40;;
52962;SDS011;38827;53.024;6.596;2022-08-11T16:21:17;2.10;;;1.40;;
52962;SDS011;38827;53.024;6.596;2022-08-11T16:23:49;2.95;;;1.05;;
52962;SDS011;38827;53.024;6.596;2022-08-11T16:26:19;3.72;;;1.40;;
52962;SDS011;38827;53.024;6.596;2022-08-11T16:28:50;2.88;;;1.15;;
52962;SDS011;38827;53.024;6.596;2022-08-11T16:31:18;4.25;;;1.60;;
52962;SDS011;38827;53.024;6.596;2022-08-11T16:33:46;4.15;;;1.40;;
52962;SDS011;38827;53.024;6.596;2022-08-11T16:36:14;4.60;;;1.50;;
52962;SDS011;38827;53.024;6.596;2022-08-11T16:39:00;6.80;;;1.33;;
52962;SDS011;38827;53.024;6.596;2022-08-11T16:41:28;3.85;;;1.23;;
52962;SDS011;38827;53.024;6.596;2022-08-11T16:44:17;3.22;;;1.25;;
52962;SDS011;38827;53.024;6.596;2022-08-11T16:47:04;6.43;;;1.30;;
52962;SDS011;38827;53.024;6.596;2022-08-11T16:49:32;3.63;;;1.23;;
52962;SDS011;38827;53.024;6.596;2022-08-11T16:51:58;1.63;;;1.20;;
52962;SDS011;38827;53.024;6.596;2022-08-11T16:54:32;6.22;;;1.30;;
52962;SDS011;38827;53.024;6.596;2022-08-11T16:57:03;3.53;;;1.38;;
52962;SDS011;38827;53.024;6.596;2022-08-11T16:59:50;7.13;;;1.88;;
52962;SDS011;38827;53.024;6.596;2022-08-11T17:02:19;10.02;;;4.38;;
52962;SDS011;38827;53.024;6.596;2022-08-11T17:05:08;5.32;;;2.30;;
52962;SDS011;38827;53.024;6.596;2022-08-11T17:08:01;5.13;;;1.50;;
52962;SDS011;38827;53.024;6.596;2022-08-11T17:10:49;6.75;;;1.40;;
52962;SDS011;38827;53.024;6.596;2022-08-11T17:16:37;3.60;;;1.42;;
52962;SDS011;38827;53.024;6.596;2022-08-11T17:19:09;6.50;;;1.58;;
52962;SDS011;38827;53.024;6.596;2022-08-11T17:21:41;3.43;;;1.40;;
52962;SDS011;38827;53.024;6.596;2022-08-11T17:24:32;5.10;;;1.60;;
52962;SDS011;38827;53.024;6.596;2022-08-11T17:27:01;2.63;;;1.30;;
52962;SDS011;38827;53.024;6.596;2022-08-11T17:29:45;2.55;;;1.30;;
52962;SDS011;38827;53.024;6.596;2022-08-11T17:32:16;3.97;;;1.30;;
52962;SDS011;38827;53.024;6.596;2022-08-11T17:35:09;4.07;;;1.30;;
52962;SDS011;38827;53.024;6.596;2022-08-11T17:38:06;1.80;;;1.33;;
52962;SDS011;38827;53.024;6.596;2022-08-11T17:40:39;5.07;;;1.60;;
52962;SDS011;38827;53.024;6.596;2022-08-11T17:43:29;2.80;;;1.33;;
52962;SDS011;38827;53.024;6.596;2022-08-11T17:46:15;3.50;;;1.77;;
52962;SDS011;38827;53.024;6.596;2022-08-11T17:49:00;2.70;;;1.45;;
52962;SDS011;38827;53.024;6.596;2022-08-11T17:51:31;3.38;;;1.80;;
52962;SDS011;38827;53.024;6.596;2022-08-11T17:54:16;5.35;;;1.77;;
52962;SDS011;38827;53.024;6.596;2022-08-11T17:57:01;3.75;;;1.65;;
52962;SDS011;38827;53.024;6.596;2022-08-11T17:59:46;6.00;;;1.85;;
52962;SDS011;38827;53.024;6.596;2022-08-11T18:02:25;5.20;;;1.45;;
52962;SDS011;38827;53.024;6.596;2022-08-11T18:05:13;2.95;;;1.58;;
52962;SDS011;38827;53.024;6.596;2022-08-11T18:07:42;5.38;;;1.27;;
52962;SDS011;38827;53.024;6.596;2022-08-11T18:10:31;2.05;;;1.42;;
52962;SDS011;38827;53.024;6.596;2022-08-11T18:13:18;2.72;;;1.30;;
52962;SDS011;38827;53.024;6.596;2022-08-11T18:16:06;5.70;;;1.48;;
52962;SDS011;38827;53.024;6.596;2022-08-11T18:18:51;5.47;;;1.50;;
52962;SDS011;38827;53.024;6.596;2022-08-11T18:21:37;3.50;;;1.60;;
52962;SDS011;38827;53.024;6.596;2022-08-11T18:24:24;4.47;;;1.40;;
52962;SDS011;38827;53.024;6.596;2022-08-11T18:27:11;3.97;;;1.40;;
52962;SDS011;38827;53.024;6.596;2022-08-11T18:29:59;5.70;;;1.73;;
52962;SDS011;38827;53.024;6.596;2022-08-11T18:32:47;2.70;;;1.40;;
52962;SDS011;38827;53.024;6.596;2022-08-11T18:35:33;7.80;;;1.30;;
52962;SDS011;38827;53.024;6.596;2022-08-11T18:38:18;4.72;;;1.50;;
52962;SDS011;38827;53.024;6.596;2022-08-11T18:41:06;2.78;;;1.60;;
52962;SDS011;38827;53.024;6.596;2022-08-11T18:43:52;2.78;;;1.60;;
52962;SDS011;38827;53.024;6.596;2022-08-11T18:46:40;11.32;;;1.80;;
52962;SDS011;38827;53.024;6.596;2022-08-11T18:49:30;5.97;;;1.77;;
52962;SDS011;38827;53.024;6.596;2022-08-11T18:52:18;7.43;;;1.88;;
52962;SDS011;38827;53.024;6.596;2022-08-11T18:55:07;2.50;;;1.45;;
52962;SDS011;38827;53.024;6.596;2022-08-11T18:57:54;3.35;;;1.52;;
52962;SDS011;38827;53.024;6.596;2022-08-11T19:00:41;5.53;;;1.52;;
52962;SDS011;38827;53.024;6.596;2022-08-11T19:03:28;8.80;;;1.63;;
52962;SDS011;38827;53.024;6.596;2022-08-11T19:06:14;7.18;;;1.52;;
52962;SDS011;38827;53.024;6.596;2022-08-11T19:09:02;5.63;;;1.98;;
52962;SDS011;38827;53.024;6.596;2022-08-11T19:11:49;7.90;;;2.17;;
52962;SDS011;38827;53.024;6.596;2022-08-11T19:14:44;4.03;;;1.80;;
52962;SDS011;38827;53.024;6.596;2022-08-11T19:17:30;4.05;;;1.60;;
52962;SDS011;38827;53.024;6.596;2022-08-11T19:20:21;5.30;;;2.10;;
52962;SDS011;38827;53.024;6.596;2022-08-11T19:23:07;4.05;;;1.90;;